Time;durP1;ratioP1;P1;durP2;ratioP2;P2;SDS_P1;SDS_P2;PMS_P1;PMS_P2;Temp;Humidity;BMP_temperature;BMP_pressure;BME280_temperature;BME280_humidity;BME280_pressure;Samples;Min_cycle;Max_cycle;Signal;HPM_P1;HPM_P2
2021/12/18 00:01:00;;;;;;;4.22;1.10;;;;;;;;;;4973784;28;20031;-65
2021/12/18 00:03:26;;;;;;;7.30;0.98;;;;;;;;;;4973441;28;20029;-65
2021/12/18 00:05:52;;;;;;;4.53;1.13;;;;;;;;;;4972647;28;20109;-64
2021/12/18 00:08:18;;;;;;;10.95;1.10;;;;;;;;;;4973604;28;20027;-64
2021/12/18 00:10:45;;;;;;;7.53;1.20;;;;;;;;;;4972978;28;20034;-65
2021/12/18 00:13:11;;;;;;;6.43;1.20;;;;;;;;;;4972811;28;20534;-64
2021/12/18 00:15:37;;;;;;;7.25;1.15;;;;;;;;;;4973114;28;20093;-64
2021/12/18 00:18:03;;;;;;;11.10;1.15;;;;;;;;;;4973503;28;20038;-64
2021/12/18 00:20:30;;;;;;;9.40;1.00;;;;;;;;;;4973588;28;20076;-64
2021/12/18 00:22:56;;;;;;;9.50;1.55;;;;;;;;;;4973314;28;20019;-64
2021/12/18 00:25:23;;;;;;;5.97;1.15;;;;;;;;;;4973146;28;20416;-65
2021/12/18 00:27:49;;;;;;;4.40;1.10;;;;;;;;;;5040168;28;20034;-64
2021/12/18 00:30:15;;;;;;;4.03;1.05;;;;;;;;;;5039815;28;20543;-65
2021/12/18 00:32:41;;;;;;;4.72;1.00;;;;;;;;;;4973344;28;20035;-64
2021/12/18 00:35:07;;;;;;;12.85;1.33;;;;;;;;;;4971757;28;20038;-65
2021/12/18 00:37:33;;;;;;;3.67;1.10;;;;;;;;;;4973098;28;20411;-65
2021/12/18 00:40:01;;;;;;;6.07;1.00;;;;;;;;;;4972853;28;20084;-64
2021/12/18 00:42:46;;;;;;;11.35;1.23;;;;;;;;;;4983234;28;20095;-65
2021/12/18 00:45:14;;;;;;;10.80;1.52;;;;;;;;;;4970847;28;20023;-63
2021/12/18 00:47:41;;;;;;;7.88;1.67;;;;;;;;;;4972487;28;20018;-63
2021/12/18 00:50:08;;;;;;;5.75;1.10;;;;;;;;;;5038798;28;20129;-63
2021/12/18 00:52:34;;;;;;;3.70;1.30;;;;;;;;;;4972443;28;20079;-63
2021/12/18 00:55:00;;;;;;;3.22;0.93;;;;;;;;;;4971810;28;20479;-63
2021/12/18 00:57:26;;;;;;;4.97;1.30;;;;;;;;;;4982843;28;20152;-63
2021/12/18 00:59:58;;;;;;;4.90;1.08;;;;;;;;;;4972206;28;20109;-63
2021/12/18 01:02:24;;;;;;;4.63;1.37;;;;;;;;;;4971431;28;20465;-62
2021/12/18 01:04:50;;;;;;;3.63;1.10;;;;;;;;;;4972414;28;20043;-63
2021/12/18 01:07:16;;;;;;;5.65;1.13;;;;;;;;;;4972694;28;20481;-63
2021/12/18 01:10:01;;;;;;;5.38;1.10;;;;;;;;;;4971232;28;20039;-63
2021/12/18 01:12:34;;;;;;;4.45;1.10;;;;;;;;;;4972538;28;20026;-63
2021/12/18 01:15:17;;;;;;;3.42;1.35;;;;;;;;;;4972532;28;20117;-63
2021/12/18 01:23:13;;;;;;;2.88;1.20;;;;;;;;;;4972610;28;20038;-63
2021/12/18 01:25:39;;;;;;;6.43;1.10;;;;;;;;;;4972209;28;20450;-63
2021/12/18 01:28:05;;;;;;;2.22;0.98;;;;;;;;;;4972413;28;20377;-62
2021/12/18 01:30:31;;;;;;;1.63;0.85;;;;;;;;;;4972693;28;20031;-63
2021/12/18 01:32:57;;;;;;;2.30;1.10;;;;;;;;;;4972177;28;20026;-63
2021/12/18 01:35:23;;;;;;;1.98;0.70;;;;;;;;;;4970950;28;20062;-63
2021/12/18 01:37:50;;;;;;;1.80;0.88;;;;;;;;;;4972314;28;20027;-63
2021/12/18 01:40:17;;;;;;;1.77;0.90;;;;;;;;;;4972395;28;20117;-63
2021/12/18 01:53:26;;;;;;;3.47;0.93;;;;;;;;;;5031761;28;20422;-64
2021/12/18 01:55:52;;;;;;;0.90;0.80;;;;;;;;;;4996341;28;20046;-63
2021/12/18 01:58:22;;;;;;;2.97;0.93;;;;;;;;;;4971750;28;20110;-63
2021/12/18 02:00:49;;;;;;;0.90;0.80;;;;;;;;;;4971837;28;20019;-63
2021/12/18 02:03:15;;;;;;;3.15;0.80;;;;;;;;;;4971649;28;20035;-64
2021/12/18 02:05:41;;;;;;;1.95;0.80;;;;;;;;;;4970606;28;20027;-62
2021/12/18 02:08:07;;;;;;;2.30;0.80;;;;;;;;;;4971650;28;20137;-64
2021/12/18 02:10:44;;;;;;;5.35;0.68;;;;;;;;;;4971718;28;20461;-64
2021/12/18 02:21:19;;;;;;;0.60;0.60;;;;;;;;;;4971657;28;20519;-64
2021/12/18 02:23:45;;;;;;;3.67;0.60;;;;;;;;;;4971629;28;20492;-63
2021/12/18 02:26:12;;;;;;;1.98;0.60;;;;;;;;;;4971810;28;20058;-63
2021/12/18 02:28:39;;;;;;;0.93;0.65;;;;;;;;;;4971552;28;20022;-63
2021/12/18 02:31:05;;;;;;;3.35;0.70;;;;;;;;;;4971396;28;20034;-63
2021/12/18 02:33:31;;;;;;;1.60;0.73;;;;;;;;;;4971122;28;20030;-63
2021/12/18 02:35:59;;;;;;;4.55;0.77;;;;;;;;;;4970161;28;20462;-64
2021/12/18 02:38:34;;;;;;;2.67;0.90;;;;;;;;;;4970759;28;20065;-63
2021/12/18 02:41:25;;;;;;;6.30;0.60;;;;;;;;;;4971062;28;20031;-64
2021/12/18 02:43:51;;;;;;;2.95;0.70;;;;;;;;;;4971362;28;20034;-63
2021/12/18 02:46:19;;;;;;;4.25;0.73;;;;;;;;;;5037919;28;20389;-63
2021/12/18 02:48:46;;;;;;;8.43;0.70;;;;;;;;;;4971066;28;20062;-64
2021/12/18 02:51:13;;;;;;;17.00;1.10;;;;;;;;;;4970340;28;20038;-64
2021/12/18 02:53:41;;;;;;;1.98;0.68;;;;;;;;;;4971186;28;20027;-63
2021/12/18 02:56:10;;;;;;;5.07;0.70;;;;;;;;;;4971308;28;20019;-63
2021/12/18 02:58:39;;;;;;;5.95;0.80;;;;;;;;;;4971281;28;20354;-64
2021/12/18 03:01:06;;;;;;;10.13;0.90;;;;;;;;;;5037949;28;20106;-63
2021/12/18 03:03:36;;;;;;;10.15;1.00;;;;;;;;;;5037520;28;20091;-64
2021/12/18 03:08:59;;;;;;;6.00;0.80;;;;;;;;;;4971318;28;20549;-64
2021/12/18 03:25:01;;;;;;;3.03;0.90;;;;;;;;;;4969837;28;20057;-64
2021/12/18 03:27:27;;;;;;;3.50;0.70;;;;;;;;;;4970127;28;20076;-63
2021/12/18 03:29:53;;;;;;;11.32;0.90;;;;;;;;;;4969681;28;20485;-63
2021/12/18 03:32:19;;;;;;;8.70;1.00;;;;;;;;;;4969793;28;20031;-64
2021/12/18 03:34:45;;;;;;;6.03;0.70;;;;;;;;;;5036056;28;20046;-64
2021/12/18 03:37:12;;;;;;;9.05;0.88;;;;;;;;;;4969905;28;20045;-64
2021/12/18 03:39:38;;;;;;;10.60;0.88;;;;;;;;;;4980886;28;20432;-64
2021/12/18 03:42:06;;;;;;;8.45;1.25;;;;;;;;;;4969514;28;20023;-64
2021/12/18 03:44:32;;;;;;;16.48;0.88;;;;;;;;;;4980275;28;20044;-65
2021/12/18 03:46:58;;;;;;;10.85;1.23;;;;;;;;;;4969466;28;20026;-65
2021/12/18 03:49:24;;;;;;;4.40;0.80;;;;;;;;;;4981294;28;20043;-64
2021/12/18 03:51:50;;;;;;;14.55;1.17;;;;;;;;;;4970148;28;20530;-65
2021/12/18 03:54:16;;;;;;;9.07;0.70;;;;;;;;;;4972015;28;20420;-65
2021/12/18 03:56:42;;;;;;;7.32;0.80;;;;;;;;;;4972649;28;20027;-65
2021/12/18 03:59:08;;;;;;;10.95;0.80;;;;;;;;;;4973648;28;20496;-65
2021/12/18 04:01:34;;;;;;;6.72;0.63;;;;;;;;;;4973712;28;20023;-65
2021/12/18 04:04:00;;;;;;;8.40;1.00;;;;;;;;;;4973565;28;20104;-65
2021/12/18 04:06:26;;;;;;;3.35;0.90;;;;;;;;;;4973401;28;20098;-65
2021/12/18 04:08:52;;;;;;;3.88;0.70;;;;;;;;;;4973408;28;20427;-65
2021/12/18 04:11:18;;;;;;;6.15;0.82;;;;;;;;;;4963902;28;20027;-65
2021/12/18 04:13:46;;;;;;;3.60;0.60;;;;;;;;;;4954184;29;20063;-65
2021/12/18 04:16:12;;;;;;;3.78;0.82;;;;;;;;;;5020388;28;20130;-65
2021/12/18 04:18:38;;;;;;;3.55;0.70;;;;;;;;;;4980137;28;20069;-65
2021/12/18 04:21:04;;;;;;;7.43;1.02;;;;;;;;;;4973113;28;20059;-64
2021/12/18 04:23:30;;;;;;;2.00;0.70;;;;;;;;;;4973356;28;20453;-64
2021/12/18 04:25:56;;;;;;;9.65;1.10;;;;;;;;;;4973069;28;20038;-64
2021/12/18 04:28:23;;;;;;;14.30;0.60;;;;;;;;;;4973520;28;20073;-64
2021/12/18 04:30:49;;;;;;;7.45;1.17;;;;;;;;;;4973107;28;20026;-64
2021/12/18 04:33:15;;;;;;;1.77;0.75;;;;;;;;;;4972978;28;20026;-64
2021/12/18 04:35:41;;;;;;;1.83;0.70;;;;;;;;;;5039551;28;20047;-64
2021/12/18 04:38:07;;;;;;;6.70;0.70;;;;;;;;;;4984179;28;20027;-64
2021/12/18 04:40:34;;;;;;;9.63;0.82;;;;;;;;;;4972967;28;20396;-64
2021/12/18 04:43:00;;;;;;;5.82;0.98;;;;;;;;;;4972350;28;20033;-63
2021/12/18 04:45:26;;;;;;;1.70;1.05;;;;;;;;;;4972743;28;20485;-63
2021/12/18 04:47:52;;;;;;;4.82;0.90;;;;;;;;;;4972842;28;20042;-62
2021/12/18 04:50:18;;;;;;;4.60;0.90;;;;;;;;;;4972985;28;20031;-63
2021/12/18 04:52:45;;;;;;;2.85;0.90;;;;;;;;;;4972930;28;20105;-64
2021/12/18 04:55:11;;;;;;;3.08;1.00;;;;;;;;;;4973025;28;20022;-63
2021/12/18 04:57:37;;;;;;;3.53;1.17;;;;;;;;;;4972698;28;20034;-63
2021/12/18 05:00:05;;;;;;;3.17;0.80;;;;;;;;;;4971304;28;20373;-63
2021/12/18 05:02:38;;;;;;;5.13;1.00;;;;;;;;;;5039543;28;20157;-64
2021/12/18 05:05:05;;;;;;;4.07;1.00;;;;;;;;;;5039236;28;20066;-64
2021/12/18 05:07:31;;;;;;;2.75;0.88;;;;;;;;;;4972490;28;20076;-64
2021/12/18 05:09:57;;;;;;;1.55;1.00;;;;;;;;;;4974464;28;20492;-64
2021/12/18 05:12:23;;;;;;;0.80;0.80;;;;;;;;;;4972776;28;20034;-64
2021/12/18 05:14:49;;;;;;;2.60;1.10;;;;;;;;;;4974408;28;20110;-63
2021/12/18 05:17:15;;;;;;;4.63;1.30;;;;;;;;;;4971440;28;20019;-63
2021/12/18 05:19:41;;;;;;;5.40;1.30;;;;;;;;;;4972476;28;20035;-63
2021/12/18 05:22:07;;;;;;;6.50;1.30;;;;;;;;;;5038801;28;20129;-63
2021/12/18 05:24:33;;;;;;;2.17;1.20;;;;;;;;;;4972224;28;20074;-63
2021/12/18 05:26:59;;;;;;;4.60;1.20;;;;;;;;;;4972521;28;20023;-64
2021/12/18 05:29:26;;;;;;;6.25;1.27;;;;;;;;;;4972174;28;20105;-64
2021/12/18 05:31:52;;;;;;;2.58;1.13;;;;;;;;;;4972249;28;20031;-64
2021/12/18 05:34:23;;;;;;;1.40;1.10;;;;;;;;;;4972237;28;20031;-62
2021/12/18 05:39:26;;;;;;;1.70;1.30;;;;;;;;;;4971927;28;20202;-62
2021/12/18 05:41:52;;;;;;;2.67;1.50;;;;;;;;;;4972386;28;20081;-63
2021/12/18 05:44:19;;;;;;;1.67;1.40;;;;;;;;;;4972064;28;20026;-63
2021/12/18 05:46:45;;;;;;;3.05;1.45;;;;;;;;;;4972143;28;20031;-63
2021/12/18 05:49:12;;;;;;;3.10;1.40;;;;;;;;;;4971086;28;20470;-62
2021/12/18 05:51:38;;;;;;;2.22;1.33;;;;;;;;;;4972126;28;20084;-62
2021/12/18 05:54:04;;;;;;;2.03;1.30;;;;;;;;;;4971847;28;20445;-62
2021/12/18 05:56:30;;;;;;;2.17;1.40;;;;;;;;;;4972013;28;20039;-62
2021/12/18 05:58:56;;;;;;;4.55;1.50;;;;;;;;;;4971766;28;20030;-62
2021/12/18 06:01:22;;;;;;;5.50;1.58;;;;;;;;;;4971842;28;20060;-62
2021/12/18 06:03:48;;;;;;;7.90;1.90;;;;;;;;;;4971878;28;20030;-63
2021/12/18 06:06:15;;;;;;;3.10;1.55;;;;;;;;;;4971257;28;20062;-63
2021/12/18 06:08:42;;;;;;;9.55;1.52;;;;;;;;;;4971539;28;20439;-63
2021/12/18 06:11:13;;;;;;;4.40;1.50;;;;;;;;;;4971096;28;20465;-63
2021/12/18 06:13:39;;;;;;;5.25;1.58;;;;;;;;;;4971649;28;20110;-63
2021/12/18 06:16:06;;;;;;;4.00;1.77;;;;;;;;;;5038164;28;20026;-63
2021/12/18 06:18:32;;;;;;;7.47;1.50;;;;;;;;;;5037991;28;20033;-63
2021/12/18 06:20:58;;;;;;;3.35;1.63;;;;;;;;;;4971660;28;20041;-63
2021/12/18 06:23:24;;;;;;;1.85;1.50;;;;;;;;;;4970492;28;20401;-63
2021/12/18 06:25:50;;;;;;;2.05;1.60;;;;;;;;;;4971505;28;20030;-63
2021/12/18 06:28:16;;;;;;;1.60;1.50;;;;;;;;;;4971718;28;20023;-63
2021/12/18 06:30:42;;;;;;;4.32;1.50;;;;;;;;;;4971781;28;20042;-63
2021/12/18 06:33:08;;;;;;;2.83;1.65;;;;;;;;;;4971307;28;20019;-63
2021/12/18 06:35:35;;;;;;;1.70;1.35;;;;;;;;;;4971249;28;20058;-63
2021/12/18 06:38:01;;;;;;;3.30;1.80;;;;;;;;;;4971269;28;20038;-63
2021/12/18 06:40:27;;;;;;;3.60;1.70;;;;;;;;;;4971412;28;20034;-63
2021/12/18 06:42:53;;;;;;;5.35;1.70;;;;;;;;;;4971176;28;20462;-63
2021/12/18 06:45:19;;;;;;;3.67;1.83;;;;;;;;;;4971232;28;20571;-63
2021/12/18 06:47:45;;;;;;;1.85;1.55;;;;;;;;;;4971419;28;20042;-62
2021/12/18 06:50:11;;;;;;;2.40;1.80;;;;;;;;;;4971245;28;20033;-63
2021/12/18 06:52:37;;;;;;;3.90;1.60;;;;;;;;;;4971118;28;20027;-63
2021/12/18 06:55:03;;;;;;;9.23;1.80;;;;;;;;;;4970946;28;20039;-63
2021/12/18 06:57:29;;;;;;;8.00;1.85;;;;;;;;;;4970121;28;20439;-62
2021/12/18 06:59:55;;;;;;;2.63;1.75;;;;;;;;;;4971204;28;20461;-62
2021/12/18 07:02:21;;;;;;;5.18;1.63;;;;;;;;;;4971390;28;20031;-62
2021/12/18 07:04:48;;;;;;;3.25;1.67;;;;;;;;;;4970809;28;20034;-62
2021/12/18 07:07:14;;;;;;;2.45;1.83;;;;;;;;;;4970974;28;20093;-62
2021/12/18 07:09:40;;;;;;;2.40;1.50;;;;;;;;;;4970889;28;20023;-62
2021/12/18 07:12:06;;;;;;;6.40;1.85;;;;;;;;;;4970927;28;20113;-63
2021/12/18 07:14:32;;;;;;;3.80;1.77;;;;;;;;;;4969932;28;20374;-62
2021/12/18 07:16:58;;;;;;;3.03;1.50;;;;;;;;;;4970796;28;20031;-62
2021/12/18 07:19:26;;;;;;;2.53;1.73;;;;;;;;;;4970753;28;20073;-62
2021/12/18 07:21:51;;;;;;;2.17;1.77;;;;;;;;;;5037728;28;20046;-63
2021/12/18 07:24:17;;;;;;;2.38;1.63;;;;;;;;;;4973605;28;20069;-63
2021/12/18 07:26:43;;;;;;;3.70;1.67;;;;;;;;;;4974187;28;20019;-62
2021/12/18 07:29:09;;;;;;;2.35;1.50;;;;;;;;;;4973938;28;20369;-62
2021/12/18 07:31:35;;;;;;;5.22;1.70;;;;;;;;;;4974203;28;20381;-63
2021/12/18 07:34:01;;;;;;;2.35;2.05;;;;;;;;;;4973600;28;20077;-63
2021/12/18 07:36:27;;;;;;;2.03;1.60;;;;;;;;;;4973776;28;20055;-62
2021/12/18 07:38:53;;;;;;;2.83;2.00;;;;;;;;;;4973593;28;20031;-63
2021/12/18 07:41:19;;;;;;;2.13;1.90;;;;;;;;;;5041045;28;20068;-63
2021/12/18 07:43:45;;;;;;;12.57;2.53;;;;;;;;;;4973254;28;20065;-64
2021/12/18 07:46:11;;;;;;;21.58;2.60;;;;;;;;;;4972506;28;20034;-65
2021/12/18 07:48:37;;;;;;;49.40;3.40;;;;;;;;;;4973782;28;20035;-65
2021/12/18 07:51:03;;;;;;;40.83;3.33;;;;;;;;;;4973682;28;20180;-63
2021/12/18 07:53:29;;;;;;;16.65;3.78;;;;;;;;;;4973359;28;20023;-65
2021/12/18 07:55:55;;;;;;;14.23;2.92;;;;;;;;;;4973352;28;20027;-62
2021/12/18 07:58:21;;;;;;;14.70;2.72;;;;;;;;;;4973421;28;20365;-62
2021/12/18 08:00:47;;;;;;;23.40;3.78;;;;;;;;;;4973379;28;20054;-63
2021/12/18 08:03:13;;;;;;;16.73;3.75;;;;;;;;;;5039839;28;20062;-63
2021/12/18 08:05:40;;;;;;;8.48;3.40;;;;;;;;;;4973393;28;20528;-64
2021/12/18 08:08:05;;;;;;;13.63;3.47;;;;;;;;;;4972899;28;20453;-63
2021/12/18 08:10:31;;;;;;;17.17;3.53;;;;;;;;;;4973287;28;20100;-63
2021/12/18 08:12:57;;;;;;;13.75;3.55;;;;;;;;;;5039931;28;20023;-63
2021/12/18 08:15:23;;;;;;;24.40;2.72;;;;;;;;;;4969554;28;20393;-63
2021/12/18 08:17:49;;;;;;;8.40;3.10;;;;;;;;;;4953801;29;20035;-63
2021/12/18 08:20:15;;;;;;;7.07;2.95;;;;;;;;;;4971450;28;20088;-63
2021/12/18 08:22:41;;;;;;;10.32;3.08;;;;;;;;;;4973382;28;20029;-64
2021/12/18 08:25:08;;;;;;;7.28;2.72;;;;;;;;;;4972772;28;20400;-64
2021/12/18 08:27:34;;;;;;;7.47;2.47;;;;;;;;;;4972770;28;20469;-63
2021/12/18 08:30:00;;;;;;;10.77;2.75;;;;;;;;;;4973453;28;20037;-64
2021/12/18 08:32:26;;;;;;;12.57;2.28;;;;;;;;;;4980124;28;20019;-69
2021/12/18 08:34:52;;;;;;;16.23;2.42;;;;;;;;;;4971234;28;20389;-64
2021/12/18 08:37:20;;;;;;;5.38;2.42;;;;;;;;;;4972747;28;20102;-63
2021/12/18 08:39:46;;;;;;;8.75;2.13;;;;;;;;;;4972926;28;20033;-63
2021/12/18 08:42:13;;;;;;;8.05;2.17;;;;;;;;;;4972383;28;20031;-63
2021/12/18 08:44:39;;;;;;;4.22;2.50;;;;;;;;;;4972355;28;20374;-63
2021/12/18 08:47:05;;;;;;;8.73;2.50;;;;;;;;;;4972389;28;20468;-63
2021/12/18 08:49:31;;;;;;;4.78;2.72;;;;;;;;;;4972356;28;20046;-63
2021/12/18 08:51:57;;;;;;;4.97;2.72;;;;;;;;;;4995532;28;20460;-64
2021/12/18 08:54:25;;;;;;;5.03;2.35;;;;;;;;;;4972343;28;20377;-65
2021/12/18 08:56:51;;;;;;;4.10;2.10;;;;;;;;;;4972019;28;20050;-64
2021/12/18 08:59:17;;;;;;;4.45;2.25;;;;;;;;;;4974706;28;20441;-64
2021/12/18 09:01:43;;;;;;;7.05;2.10;;;;;;;;;;5035786;28;20044;-65
2021/12/18 09:04:09;;;;;;;8.43;2.30;;;;;;;;;;5053801;28;20032;-65
2021/12/18 09:06:35;;;;;;;5.95;2.20;;;;;;;;;;5001337;28;20045;-68
2021/12/18 09:09:01;;;;;;;5.78;1.88;;;;;;;;;;4972063;28;20027;-65
2021/12/18 09:11:27;;;;;;;9.57;2.50;;;;;;;;;;5038037;28;20043;-65
2021/12/18 09:13:53;;;;;;;5.45;2.25;;;;;;;;;;4970496;28;20031;-65
2021/12/18 09:16:19;;;;;;;6.95;2.40;;;;;;;;;;4971712;28;20089;-67
2021/12/18 09:18:45;;;;;;;9.35;2.20;;;;;;;;;;5038329;28;20030;-65
2021/12/18 09:21:11;;;;;;;5.05;2.30;;;;;;;;;;5051231;28;20022;-65
2021/12/18 09:23:37;;;;;;;6.30;2.63;;;;;;;;;;4984176;28;20116;-66
2021/12/18 09:26:03;;;;;;;7.13;2.30;;;;;;;;;;5037150;28;20495;-67
2021/12/18 09:28:29;;;;;;;8.68;2.10;;;;;;;;;;5037102;28;20460;-64
2021/12/18 09:30:55;;;;;;;9.73;2.38;;;;;;;;;;4970558;28;20512;-68
2021/12/18 09:33:22;;;;;;;6.60;2.42;;;;;;;;;;4999717;28;20393;-66
2021/12/18 09:35:59;;;;;;;5.32;2.47;;;;;;;;;;5037607;28;20081;-65
2021/12/18 09:38:25;;;;;;;5.00;2.22;;;;;;;;;;4971457;28;20058;-67
2021/12/18 09:40:51;;;;;;;5.78;2.83;;;;;;;;;;4971369;28;20065;-67
2021/12/18 09:43:17;;;;;;;7.32;2.28;;;;;;;;;;5037313;28;20050;-68
2021/12/18 09:45:46;;;;;;;6.03;2.70;;;;;;;;;;4972013;28;20043;-67
2021/12/18 09:48:12;;;;;;;5.65;2.33;;;;;;;;;;4987804;28;20109;-66
2021/12/18 09:50:40;;;;;;;12.95;2.90;;;;;;;;;;5050917;28;20110;-66
2021/12/18 09:53:07;;;;;;;6.53;2.65;;;;;;;;;;4977101;28;20495;-66
2021/12/18 09:55:33;;;;;;;3.50;2.80;;;;;;;;;;5047638;28;20046;-65
2021/12/18 09:57:59;;;;;;;3.28;2.70;;;;;;;;;;4991271;28;20078;-64
2021/12/18 10:00:25;;;;;;;8.07;3.17;;;;;;;;;;4987701;28;20043;-66
2021/12/18 10:02:51;;;;;;;5.43;2.58;;;;;;;;;;4980779;28;20097;-66
2021/12/18 10:05:20;;;;;;;6.00;2.65;;;;;;;;;;4980534;28;20035;-66
2021/12/18 10:08:04;;;;;;;6.75;2.53;;;;;;;;;;4976288;28;20473;-66
2021/12/18 10:10:30;;;;;;;4.68;2.63;;;;;;;;;;4986881;28;20042;-66
2021/12/18 10:13:06;;;;;;;3.38;2.50;;;;;;;;;;4975918;28;20026;-66
2021/12/18 10:15:34;;;;;;;3.28;2.13;;;;;;;;;;4977028;28;20520;-69
2021/12/18 10:18:07;;;;;;;3.22;2.10;;;;;;;;;;4978095;28;20534;-68
2021/12/18 10:20:33;;;;;;;16.23;2.40;;;;;;;;;;4971013;28;20026;-70
2021/12/18 10:23:03;;;;;;;3.72;1.85;;;;;;;;;;4970516;28;20023;-68
2021/12/18 10:25:40;;;;;;;3.47;2.20;;;;;;;;;;4970675;28;20088;-68
2021/12/18 10:28:17;;;;;;;5.78;2.53;;;;;;;;;;4969768;28;20031;-67
2021/12/18 10:30:50;;;;;;;7.93;3.20;;;;;;;;;;4981513;28;20038;-69
2021/12/18 10:33:17;;;;;;;8.48;2.80;;;;;;;;;;4970892;28;20027;-67
2021/12/18 10:35:45;;;;;;;13.45;3.10;;;;;;;;;;4970909;28;20059;-68
2021/12/18 10:38:31;;;;;;;6.00;2.53;;;;;;;;;;4992564;28;20071;-67
2021/12/18 10:40:57;;;;;;;3.65;1.95;;;;;;;;;;4975570;28;20569;-68
2021/12/18 10:43:23;;;;;;;10.15;2.53;;;;;;;;;;4968705;28;20037;-67
2021/12/18 10:45:49;;;;;;;7.07;3.33;;;;;;;;;;4966292;28;20058;-67
2021/12/18 10:48:16;;;;;;;6.68;2.55;;;;;;;;;;4969736;28;20096;-67
2021/12/18 10:50:45;;;;;;;7.80;2.90;;;;;;;;;;4969893;28;20062;-67
2021/12/18 10:53:16;;;;;;;11.73;2.92;;;;;;;;;;4980913;28;20154;-67
2021/12/18 10:55:48;;;;;;;13.32;3.05;;;;;;;;;;4969968;28;20077;-67
2021/12/18 10:58:17;;;;;;;17.48;2.60;;;;;;;;;;4970758;28;20389;-67
2021/12/18 11:00:45;;;;;;;9.68;2.90;;;;;;;;;;4984281;28;20042;-68
2021/12/18 11:03:34;;;;;;;7.95;2.60;;;;;;;;;;4979021;28;20385;-67
2021/12/18 11:06:03;;;;;;;11.95;2.90;;;;;;;;;;4983227;28;20074;-66
2021/12/18 11:08:29;;;;;;;11.15;2.63;;;;;;;;;;4973518;28;20081;-67
2021/12/18 11:13:51;;;;;;;5.03;2.95;;;;;;;;;;4973435;28;20029;-66
2021/12/18 11:16:17;;;;;;;11.45;3.00;;;;;;;;;;4973263;28;20080;-66
2021/12/18 11:18:43;;;;;;;10.05;2.72;;;;;;;;;;4972230;28;20018;-66
2021/12/18 11:21:09;;;;;;;8.32;3.00;;;;;;;;;;4972966;28;20129;-66
2021/12/18 11:23:39;;;;;;;8.55;2.75;;;;;;;;;;4972950;28;20023;-66
2021/12/18 11:26:07;;;;;;;9.35;3.45;;;;;;;;;;5042667;28;20033;-67
2021/12/18 11:28:35;;;;;;;3.70;2.25;;;;;;;;;;4998499;28;20039;-66
2021/12/18 11:31:01;;;;;;;10.23;2.65;;;;;;;;;;5023814;28;20037;-67
2021/12/18 11:33:27;;;;;;;6.70;2.60;;;;;;;;;;5047303;28;20030;-67
2021/12/18 11:35:54;;;;;;;12.25;3.15;;;;;;;;;;5000224;28;20042;-68
2021/12/18 11:38:20;;;;;;;4.55;2.38;;;;;;;;;;4983323;28;20030;-67
2021/12/18 11:40:47;;;;;;;10.90;2.90;;;;;;;;;;4981472;28;20389;-66
2021/12/18 11:43:31;;;;;;;12.52;2.97;;;;;;;;;;4990272;28;20038;-68
2021/12/18 11:45:57;;;;;;;2.95;2.40;;;;;;;;;;4979666;28;20084;-67
2021/12/18 11:48:24;;;;;;;10.73;2.90;;;;;;;;;;4978794;28;20031;-67
2021/12/18 11:50:50;;;;;;;12.52;2.90;;;;;;;;;;4981236;28;20056;-67
2021/12/18 11:53:20;;;;;;;4.75;3.20;;;;;;;;;;5044420;28;20080;-67
2021/12/18 11:55:49;;;;;;;5.38;2.95;;;;;;;;;;5009451;28;20047;-66
2021/12/18 11:58:16;;;;;;;4.00;2.88;;;;;;;;;;4983318;28;20092;-67
2021/12/18 12:00:45;;;;;;;7.57;2.70;;;;;;;;;;4988969;28;20045;-67
2021/12/18 12:03:12;;;;;;;5.53;2.45;;;;;;;;;;5046103;28;20081;-67
2021/12/18 12:05:44;;;;;;;9.38;2.97;;;;;;;;;;4979801;28;20031;-66
2021/12/18 12:08:20;;;;;;;9.77;2.50;;;;;;;;;;4984834;28;20057;-66
2021/12/18 12:11:05;;;;;;;5.50;3.05;;;;;;;;;;4977690;28;20870;-67
2021/12/18 12:13:50;;;;;;;8.70;3.15;;;;;;;;;;4973042;28;20023;-68
2021/12/18 12:16:16;;;;;;;6.53;2.63;;;;;;;;;;4980276;28;20058;-66
2021/12/18 12:19:02;;;;;;;4.90;2.78;;;;;;;;;;4980373;28;20100;-68
2021/12/18 12:21:38;;;;;;;4.13;2.78;;;;;;;;;;4981489;28;20023;-66
2021/12/18 12:24:04;;;;;;;3.55;2.90;;;;;;;;;;4975142;28;20121;-66
2021/12/18 12:26:30;;;;;;;22.02;3.22;;;;;;;;;;4975620;28;20037;-68
2021/12/18 12:28:56;;;;;;;54.35;4.85;;;;;;;;;;4971852;28;20031;-69
2021/12/18 12:31:23;;;;;;;45.53;3.88;;;;;;;;;;4971994;28;20030;-68
2021/12/18 12:33:50;;;;;;;12.32;3.03;;;;;;;;;;4971858;28;20050;-67
2021/12/18 12:36:23;;;;;;;10.20;3.40;;;;;;;;;;4970903;28;20062;-67
2021/12/18 12:38:53;;;;;;;10.02;2.97;;;;;;;;;;4971780;28;20472;-69
2021/12/18 12:41:35;;;;;;;15.25;2.78;;;;;;;;;;5041261;28;20170;-67
2021/12/18 12:44:16;;;;;;;8.13;2.67;;;;;;;;;;5038293;28;20428;-67
2021/12/18 12:46:42;;;;;;;7.65;2.90;;;;;;;;;;4970990;28;20027;-67
2021/12/18 12:49:11;;;;;;;9.38;2.58;;;;;;;;;;4971839;28;20019;-67
2021/12/18 12:51:56;;;;;;;13.15;3.10;;;;;;;;;;4982130;28;20452;-67
2021/12/18 12:54:41;;;;;;;6.25;2.35;;;;;;;;;;4973651;28;20508;-67
2021/12/18 12:57:22;;;;;;;7.43;2.70;;;;;;;;;;4971836;28;20030;-67
2021/12/18 12:59:48;;;;;;;8.30;2.90;;;;;;;;;;5038179;28;20035;-67
2021/12/18 13:02:14;;;;;;;6.03;2.50;;;;;;;;;;4971333;28;20370;-67
2021/12/18 13:04:40;;;;;;;8.27;2.80;;;;;;;;;;4971295;28;20035;-67
2021/12/18 13:07:06;;;;;;;12.13;2.65;;;;;;;;;;4971544;28;20072;-67
2021/12/18 13:09:36;;;;;;;7.13;2.30;;;;;;;;;;4973494;28;20031;-67
2021/12/18 13:12:05;;;;;;;4.65;2.20;;;;;;;;;;4973139;28;20027;-67
2021/12/18 13:14:38;;;;;;;12.52;2.78;;;;;;;;;;4982195;28;20029;-68
2021/12/18 13:17:04;;;;;;;;;;;;;;;;;;4971539;28;20058;-67
2021/12/18 13:19:31;;;;;;;4.18;2.38;;;;;;;;;;5037992;28;20252;-69
2021/12/18 13:21:57;;;;;;;6.63;2.05;;;;;;;;;;4971269;28;20041;-67
2021/12/18 13:24:23;;;;;;;9.27;1.90;;;;;;;;;;4970627;28;20043;-67
2021/12/18 13:26:49;;;;;;;5.28;2.22;;;;;;;;;;4973384;28;20018;-67
2021/12/18 13:29:15;;;;;;;5.00;2.10;;;;;;;;;;4971405;28;20056;-68
2021/12/18 13:31:49;;;;;;;9.43;2.30;;;;;;;;;;4973933;28;20155;-67
2021/12/18 13:34:20;;;;;;;6.30;2.25;;;;;;;;;;4971379;28;20031;-69
2021/12/18 13:36:45;;;;;;;3.78;1.92;;;;;;;;;;5037424;28;20101;-69
2021/12/18 13:39:13;;;;;;;8.70;1.90;;;;;;;;;;4971231;28;20573;-65
2021/12/18 13:41:39;;;;;;;8.23;2.47;;;;;;;;;;5035421;28;20452;-66
2021/12/18 13:44:06;;;;;;;6.88;1.80;;;;;;;;;;4971232;28;20041;-67
2021/12/18 13:46:32;;;;;;;4.88;2.00;;;;;;;;;;5038426;28;20433;-71
2021/12/18 13:48:58;;;;;;;15.82;2.00;;;;;;;;;;4971815;28;20027;-69
2021/12/18 13:51:26;;;;;;;4.28;1.98;;;;;;;;;;4972386;28;20031;-70
2021/12/18 13:54:03;;;;;;;11.20;1.70;;;;;;;;;;4971781;28;20034;-72
2021/12/18 13:56:30;;;;;;;8.57;1.98;;;;;;;;;;4971833;28;20084;-69
2021/12/18 13:58:57;;;;;;;7.18;2.00;;;;;;;;;;5037946;28;20035;-68
2021/12/18 14:01:24;;;;;;;5.50;1.90;;;;;;;;;;5037104;28;20019;-67
2021/12/18 14:03:58;;;;;;;6.03;2.10;;;;;;;;;;4980373;28;20110;-68
2021/12/18 14:06:29;;;;;;;9.40;2.00;;;;;;;;;;4987444;28;20026;-68
2021/12/18 14:08:59;;;;;;;2.80;2.05;;;;;;;;;;4970945;28;20053;-72
2021/12/18 14:11:29;;;;;;;6.45;1.98;;;;;;;;;;4980232;28;20035;-67
2021/12/18 14:14:00;;;;;;;6.57;2.00;;;;;;;;;;4968012;28;20051;-67
2021/12/18 14:16:26;;;;;;;5.13;2.03;;;;;;;;;;5037151;28;20114;-67
2021/12/18 14:18:53;;;;;;;6.22;1.90;;;;;;;;;;4971197;28;20025;-67
2021/12/18 14:21:32;;;;;;;8.77;1.77;;;;;;;;;;4970846;28;20096;-68
2021/12/18 14:24:00;;;;;;;11.43;1.98;;;;;;;;;;4970744;28;20497;-69
2021/12/18 14:26:27;;;;;;;10.00;2.50;;;;;;;;;;4970936;28;20029;-67
2021/12/18 14:28:55;;;;;;;7.95;1.85;;;;;;;;;;4970444;28;20363;-69
2021/12/18 14:31:24;;;;;;;10.85;2.10;;;;;;;;;;4968426;28;20711;-68
2021/12/18 14:33:53;;;;;;;4.32;1.90;;;;;;;;;;5034952;28;20427;-70
2021/12/18 14:36:37;;;;;;;11.48;2.35;;;;;;;;;;4986026;28;20038;-69
2021/12/18 14:39:03;;;;;;;5.85;1.90;;;;;;;;;;5036245;28;20039;-68
2021/12/18 14:41:32;;;;;;;7.75;2.17;;;;;;;;;;4970179;28;20083;-71
2021/12/18 14:44:01;;;;;;;12.32;1.88;;;;;;;;;;4970923;28;20027;-71
2021/12/18 14:46:27;;;;;;;9.32;2.20;;;;;;;;;;4970967;28;20080;-70
2021/12/18 14:48:53;;;;;;;9.23;2.05;;;;;;;;;;5037186;28;20031;-68
2021/12/18 14:51:28;;;;;;;4.60;2.40;;;;;;;;;;4970874;28;20019;-67
2021/12/18 14:54:01;;;;;;;9.35;2.20;;;;;;;;;;4981600;28;20119;-67
2021/12/18 14:56:27;;;;;;;6.65;1.90;;;;;;;;;;4970584;28;20023;-68
2021/12/18 14:58:53;;;;;;;4.15;2.30;;;;;;;;;;4969746;28;20030;-68
2021/12/18 15:01:20;;;;;;;4.63;2.42;;;;;;;;;;4974604;28;20049;-68
2021/12/18 15:03:56;;;;;;;3.33;2.40;;;;;;;;;;4970498;28;20038;-68
2021/12/18 15:06:32;;;;;;;7.22;2.65;;;;;;;;;;4970898;28;20030;-69
2021/12/18 15:09:11;;;;;;;3.28;2.63;;;;;;;;;;4970237;28;20508;-69
2021/12/18 15:11:45;;;;;;;8.40;3.65;;;;;;;;;;4970447;28;20058;-69
2021/12/18 15:14:12;;;;;;;4.88;2.67;;;;;;;;;;4981464;28;20176;-68
2021/12/18 15:16:38;;;;;;;4.90;2.92;;;;;;;;;;5038464;28;20126;-70
2021/12/18 15:19:09;;;;;;;5.00;2.80;;;;;;;;;;4969939;28;20023;-71
2021/12/18 15:21:37;;;;;;;6.78;3.25;;;;;;;;;;4968679;28;20038;-70
2021/12/18 15:24:03;;;;;;;5.78;3.03;;;;;;;;;;5036908;28;20067;-69
2021/12/18 15:26:30;;;;;;;3.90;2.97;;;;;;;;;;4970190;28;20038;-70
2021/12/18 15:28:56;;;;;;;4.47;3.00;;;;;;;;;;4969662;28;20035;-68
2021/12/18 15:31:22;;;;;;;4.78;3.33;;;;;;;;;;4969655;28;20076;-69